createdAt,value
2023-04-16T00:01:16.964Z,101289.00
2023-04-16T00:03:44.757Z,101294.53
2023-04-16T00:06:12.849Z,101291.53
2023-04-16T00:08:43.872Z,101296.56
2023-04-16T00:11:11.591Z,101294.81
2023-04-16T00:13:39.273Z,101292.53
2023-04-16T00:16:08.708Z,101288.25
2023-04-16T00:18:36.492Z,101287.41
2023-04-16T00:21:04.452Z,101278.72
2023-04-16T00:23:32.636Z,101287.50
2023-04-16T00:26:01.708Z,101281.22
2023-04-16T00:28:29.395Z,101286.88
2023-04-16T00:30:57.816Z,101283.59
2023-04-16T00:33:25.612Z,101285.59
2023-04-16T00:35:53.346Z,101282.69
2023-04-16T00:38:21.518Z,101276.75
2023-04-16T00:40:49.212Z,101276.38
2023-04-16T00:43:25.306Z,101275.66
2023-04-16T00:45:53.951Z,101270.78
2023-04-16T00:48:22.011Z,101275.66
2023-04-16T00:50:50.347Z,101276.28
2023-04-16T00:53:18.151Z,101273.44
2023-04-16T00:55:46.496Z,101273.63
2023-04-16T00:58:14.693Z,101280.09
2023-04-16T01:00:43.783Z,101279.28
2023-04-16T01:03:11.848Z,101277.44
2023-04-16T01:05:41.057Z,101276.91
2023-04-16T01:08:15.813Z,101272.88
2023-04-16T01:10:43.904Z,101273.53
2023-04-16T01:13:11.918Z,101278.31
2023-04-16T01:15:39.791Z,101285.28
2023-04-16T01:18:16.636Z,101284.94
2023-04-16T01:20:46.211Z,101293.50
2023-04-16T01:23:13.922Z,101293.69
2023-04-16T01:25:42.115Z,101294.72
2023-04-16T01:28:09.795Z,101287.50
2023-04-16T01:30:37.512Z,101296.72
2023-04-16T01:33:06.301Z,101289.16
2023-04-16T01:35:33.977Z,101288.56
2023-04-16T01:38:03.075Z,101298.19
2023-04-16T01:40:31.494Z,101295.44
2023-04-16T01:42:59.164Z,101301.38
2023-04-16T01:45:26.967Z,101300.66
2023-04-16T01:47:55.423Z,101295.72
2023-04-16T01:50:24.867Z,101296.44
2023-04-16T01:52:52.543Z,101297.81
2023-04-16T01:55:22.532Z,101297.09
2023-04-16T01:57:50.279Z,101293.25
2023-04-16T02:00:18.033Z,101300.59
2023-04-16T02:02:46.562Z,101299.47
2023-04-16T02:05:14.439Z,101295.44
2023-04-16T02:07:42.134Z,101294.53
2023-04-16T02:10:11.720Z,101303.13
2023-04-16T02:12:40.581Z,101302.75
2023-04-16T02:15:09.393Z,101302.41
2023-04-16T02:17:37.646Z,101291.81
2023-04-16T02:20:08.020Z,101298.72
2023-04-16T02:22:35.845Z,101302.81
2023-04-16T02:25:03.979Z,101302.00
2023-04-16T02:27:31.682Z,101299.56
2023-04-16T02:30:00.718Z,101305.31
2023-04-16T02:32:29.020Z,101295.94
2023-04-16T02:34:57.044Z,101302.91
2023-04-16T02:37:25.825Z,101299.25
2023-04-16T02:39:54.100Z,101302.53
2023-04-16T02:42:21.860Z,101299.72
2023-04-16T02:44:49.534Z,101291.56
2023-04-16T02:47:19.055Z,101302.16
2023-04-16T02:49:46.810Z,101296.88
2023-04-16T02:52:15.625Z,101302.97
2023-04-16T02:54:43.901Z,101301.19
2023-04-16T02:57:11.575Z,101301.09
2023-04-16T02:59:39.257Z,101299.25
2023-04-16T03:02:07.540Z,101306.19
2023-04-16T03:04:36.791Z,101295.59
2023-04-16T03:07:04.771Z,101291.88
2023-04-16T03:09:33.650Z,101301.44
2023-04-16T03:12:01.750Z,101294.97
2023-04-16T03:14:29.560Z,101294.78
2023-04-16T03:16:57.864Z,101298.88
2023-04-16T03:19:25.713Z,101304.81
2023-04-16T03:21:54.776Z,101305.44
2023-04-16T03:24:22.902Z,101298.13
2023-04-16T03:26:50.614Z,101303.44
2023-04-16T03:29:18.286Z,101299.31
2023-04-16T03:31:46.830Z,101300.94
2023-04-16T03:34:14.504Z,101297.13
2023-04-16T03:36:42.172Z,101297.13
2023-04-16T03:39:11.456Z,101294.03
2023-04-16T03:41:39.257Z,101292.84
2023-04-16T03:44:06.944Z,101300.53
2023-04-16T03:46:35.246Z,101298.88
2023-04-16T03:49:02.934Z,101298.03
2023-04-16T03:51:30.887Z,101301.34
2023-04-16T03:53:59.133Z,101299.88
2023-04-16T03:56:28.199Z,101306.19
2023-04-16T03:58:55.895Z,101309.59
2023-04-16T04:01:24.160Z,101303.28
2023-04-16T04:03:52.069Z,101304.28
2023-04-16T04:06:19.965Z,101306.28
2023-04-16T04:08:48.072Z,101301.53
2023-04-16T04:11:15.773Z,101306.03
2023-04-16T04:13:44.805Z,101297.09
2023-04-16T04:16:13.170Z,101303.94
2023-04-16T04:18:41.718Z,101299.47
2023-04-16T04:21:11.057Z,101292.91
2023-04-16T04:23:39.441Z,101302.28
2023-04-16T04:26:07.520Z,101306.78
2023-04-16T04:28:36.111Z,101298.22
2023-04-16T04:31:05.874Z,101302.69
2023-04-16T04:33:33.382Z,101310.06
2023-04-16T04:36:01.080Z,101318.03
2023-04-16T04:38:30.487Z,101321.66
2023-04-16T04:40:58.259Z,101313.72
2023-04-16T04:43:26.194Z,101316.09
2023-04-16T04:45:54.403Z,101318.56
2023-04-16T04:48:26.526Z,101322.03
2023-04-16T04:50:55.227Z,101333.63
2023-04-16T04:53:22.949Z,101323.66
2023-04-16T04:55:53.149Z,101329.59
2023-04-16T04:58:23.805Z,101330.41
2023-04-16T05:00:51.501Z,101331.25
2023-04-16T05:03:22.607Z,101330.06
2023-04-16T05:05:51.775Z,101332.50
2023-04-16T05:08:19.440Z,101337.19
2023-04-16T05:10:47.659Z,101331.88
2023-04-16T05:13:15.358Z,101332.69
2023-04-16T05:15:43.059Z,101333.31
2023-04-16T05:18:11.181Z,101334.34
2023-04-16T05:20:38.883Z,101334.53
2023-04-16T05:23:07.964Z,101336.16
2023-04-16T05:25:36.214Z,101331.88
2023-04-16T05:28:04.005Z,101339.47
2023-04-16T05:30:31.747Z,101341.28
2023-04-16T05:33:00.323Z,101342.28
2023-04-16T05:35:28.046Z,101350.41
2023-04-16T05:37:55.719Z,101344.31
2023-04-16T05:40:25.199Z,101346.69
2023-04-16T05:42:52.882Z,101344.22
2023-04-16T05:45:20.656Z,101346.88
2023-04-16T05:47:49.170Z,101346.63
2023-04-16T05:50:17.065Z,101347.72
2023-04-16T05:52:44.749Z,101355.00
2023-04-16T05:55:13.086Z,101355.47
2023-04-16T05:57:42.151Z,101361.28
2023-04-16T06:00:10.572Z,101353.44
2023-04-16T06:02:38.884Z,101364.69
2023-04-16T06:05:07.174Z,101367.59
2023-04-16T06:07:34.885Z,101362.22
2023-04-16T06:10:03.049Z,101371.88
2023-04-16T06:12:31.029Z,101375.63
2023-04-16T06:15:00.884Z,101371.59
2023-04-16T06:17:29.248Z,101371.25
2023-04-16T06:19:56.918Z,101382.19
2023-04-16T06:22:25.578Z,101377.72
2023-04-16T06:24:54.427Z,101378.47
2023-04-16T06:27:22.089Z,101380.19
2023-04-16T06:29:51.621Z,101386.41
2023-04-16T06:32:21.300Z,101384.38
2023-04-16T06:34:48.837Z,101390.97
2023-04-16T06:37:16.533Z,101394.97
2023-04-16T06:39:44.805Z,101392.97
2023-04-16T06:42:12.656Z,101399.09
2023-04-16T06:44:40.360Z,101396.25
2023-04-16T06:47:08.844Z,101405.41
2023-04-16T06:49:39.435Z,101398.63
2023-04-16T06:52:07.261Z,101402.47
2023-04-16T06:54:35.278Z,101401.28
2023-04-16T06:57:02.985Z,101402.91
2023-04-16T06:59:30.876Z,101410.50
2023-04-16T07:01:59.192Z,101408.94
2023-04-16T07:04:26.929Z,101418.66
2023-04-16T07:06:56.035Z,101411.03
2023-04-16T07:09:23.728Z,101413.03
2023-04-16T07:11:51.432Z,101405.88
2023-04-16T07:14:19.190Z,101411.06
2023-04-16T07:16:47.559Z,101409.78
2023-04-16T07:19:15.338Z,101416.34
2023-04-16T07:21:43.707Z,101420.00
2023-04-16T07:24:13.475Z,101415.47
2023-04-16T07:26:41.117Z,101418.19
2023-04-16T07:29:09.387Z,101417.28
2023-04-16T07:31:38.284Z,101410.06
2023-04-16T07:34:06.529Z,101418.16
2023-04-16T07:36:34.505Z,101420.16
2023-04-16T07:39:03.117Z,101422.25
2023-04-16T07:41:32.705Z,101423.47
2023-04-16T07:44:00.681Z,101422.09
2023-04-16T07:46:36.198Z,101424.75
2023-04-16T07:49:13.656Z,101434.41
2023-04-16T07:51:41.862Z,101427.28
2023-04-16T07:54:09.587Z,101431.97
2023-04-16T07:56:38.647Z,101440.53
2023-04-16T07:59:21.166Z,101443.03
2023-04-16T08:01:50.341Z,101445.28
2023-04-16T08:04:25.631Z,101442.44
2023-04-16T08:06:54.408Z,101442.28
2023-04-16T08:09:24.487Z,101448.88
2023-04-16T08:11:53.529Z,101451.69
2023-04-16T08:14:21.524Z,101454.50
2023-04-16T08:16:49.613Z,101452.50
2023-04-16T08:19:17.303Z,101457.78
2023-04-16T08:21:45.404Z,101458.06
2023-04-16T08:24:13.132Z,101461.72
2023-04-16T08:26:41.268Z,101470.13
2023-04-16T08:29:10.736Z,101461.63
2023-04-16T08:31:39.455Z,101469.66
2023-04-16T08:34:07.193Z,101464.56
2023-04-16T08:36:34.891Z,101468.66
2023-04-16T08:39:02.819Z,101464.66
2023-04-16T08:41:33.459Z,101471.41
2023-04-16T08:44:06.101Z,101472.25
2023-04-16T08:46:38.761Z,101474.06
2023-04-16T08:49:09.742Z,101473.59
2023-04-16T08:51:37.979Z,101488.69
2023-04-16T08:54:10.293Z,101486.56
2023-04-16T08:56:39.471Z,101490.50
2023-04-16T08:59:11.274Z,101495.16
2023-04-16T09:01:41.980Z,101500.72
2023-04-16T09:04:10.875Z,101501.72
2023-04-16T09:06:42.107Z,101504.91
2023-04-16T09:09:12.074Z,101503.81
2023-04-16T09:11:40.651Z,101506.19
2023-04-16T09:14:12.446Z,101498.91
2023-04-16T09:16:43.079Z,101507.72
2023-04-16T09:19:11.845Z,101500.72
2023-04-16T09:21:42.568Z,101501.00
2023-04-16T09:24:11.396Z,101505.66
2023-04-16T09:26:39.848Z,101509.78
2023-04-16T09:29:10.127Z,101514.59
2023-04-16T09:31:38.470Z,101516.97
2023-04-16T09:34:10.549Z,101506.38
2023-04-16T09:36:38.740Z,101516.88
2023-04-16T09:39:06.801Z,101517.69
2023-04-16T09:41:40.167Z,101519.16
2023-04-16T09:44:07.891Z,101522.25
2023-04-16T09:46:37.036Z,101523.91
2023-04-16T09:49:11.097Z,101525.34
2023-04-16T09:51:42.283Z,101530.66
2023-04-16T09:54:12.746Z,101527.47
2023-04-16T09:56:42.620Z,101530.28
2023-04-16T09:59:18.458Z,101525.81
2023-04-16T10:01:49.541Z,101527.56
2023-04-16T10:04:20.088Z,101531.84
2023-04-16T10:07:04.550Z,101536.13
2023-04-16T10:09:33.950Z,101531.03
2023-04-16T10:12:02.294Z,101535.22
2023-04-16T10:14:30.904Z,101529.69
2023-04-16T10:16:59.561Z,101540.63
2023-04-16T10:19:31.650Z,101537.81
2023-04-16T10:22:00.614Z,101544.06
2023-04-16T10:24:29.477Z,101544.28
2023-04-16T10:26:57.867Z,101550.47
2023-04-16T10:29:28.096Z,101545.19
2023-04-16T10:31:57.842Z,101544.66
2023-04-16T10:34:26.412Z,101548.59
2023-04-16T10:36:57.038Z,101545.59
2023-04-16T10:39:26.479Z,101548.22
2023-04-16T10:42:09.916Z,101553.00
2023-04-16T10:44:38.187Z,101551.16
2023-04-16T10:47:13.399Z,101548.78
2023-04-16T10:49:41.689Z,101545.75
2023-04-16T10:52:13.602Z,101542.19
2023-04-16T10:54:42.382Z,101555.72
2023-04-16T10:57:18.522Z,101552.72
2023-04-16T10:59:47.144Z,101550.09
2023-04-16T11:02:17.570Z,101555.38
2023-04-16T11:04:46.741Z,101553.56
2023-04-16T11:07:20.712Z,101554.91
2023-04-16T11:10:00.206Z,101552.53
2023-04-16T11:12:34.466Z,101546.50
2023-04-16T11:15:04.872Z,101542.03
2023-04-16T11:17:34.912Z,101546.31
2023-04-16T11:20:03.205Z,101547.31
2023-04-16T11:22:36.958Z,101545.34
2023-04-16T11:25:05.775Z,101544.88
2023-04-16T11:27:33.680Z,101545.34
2023-04-16T11:30:04.652Z,101550.25
2023-04-16T11:32:33.952Z,101549.91
2023-04-16T11:35:04.927Z,101553.56
2023-04-16T11:37:35.839Z,101542.41
2023-04-16T11:40:07.337Z,101547.53
2023-04-16T11:42:37.261Z,101544.50
2023-04-16T11:45:06.215Z,101553.84
2023-04-16T11:47:46.465Z,101547.16
2023-04-16T11:50:22.127Z,101552.53
2023-04-16T11:52:53.048Z,101551.63
2023-04-16T11:55:21.764Z,101551.72
2023-04-16T11:57:51.082Z,101552.53
2023-04-16T12:00:24.363Z,101551.34
2023-04-16T12:02:54.410Z,101554.00
2023-04-16T12:05:31.437Z,101555.28
2023-04-16T12:08:02.326Z,101558.59
2023-04-16T12:10:31.781Z,101553.44
2023-04-16T12:13:12.678Z,101555.06
2023-04-16T12:15:48.469Z,101554.00
2023-04-16T12:18:17.028Z,101557.28
2023-04-16T12:20:47.598Z,101560.09
2023-04-16T12:23:27.580Z,101561.94
2023-04-16T12:25:56.623Z,101549.69
2023-04-16T12:28:32.697Z,101566.88
2023-04-16T12:31:01.155Z,101565.88
2023-04-16T12:33:29.397Z,101563.22
2023-04-16T12:35:58.529Z,101558.66
2023-04-16T12:38:28.309Z,101568.53
2023-04-16T12:40:57.873Z,101562.41
2023-04-16T12:43:26.680Z,101556.00
2023-04-16T12:45:54.873Z,101564.03
2023-04-16T12:48:22.981Z,101556.75
2023-04-16T12:50:51.341Z,101561.84
2023-04-16T12:53:19.515Z,101560.38
2023-04-16T12:55:49.031Z,101556.28
2023-04-16T12:58:17.491Z,101560.22
2023-04-16T13:00:46.067Z,101562.88
2023-04-16T13:03:14.288Z,101559.22
2023-04-16T13:05:42.738Z,101556.47
2023-04-16T13:08:10.847Z,101566.69
2023-04-16T13:10:39.013Z,101561.03
2023-04-16T13:13:10.515Z,101553.53
2023-04-16T13:15:38.814Z,101556.19
2023-04-16T13:18:07.084Z,101550.47
2023-04-16T13:20:36.193Z,101557.25
2023-04-16T13:23:04.964Z,101557.88
2023-04-16T13:25:33.009Z,101554.22
2023-04-16T13:28:01.270Z,101550.69
2023-04-16T13:30:31.817Z,101557.63
2023-04-16T13:33:00.144Z,101554.44
2023-04-16T13:35:28.699Z,101552.41
2023-04-16T13:37:56.798Z,101562.84
2023-04-16T13:40:24.801Z,101559.38
2023-04-16T13:42:53.197Z,101561.47
2023-04-16T13:45:21.675Z,101560.75
2023-04-16T13:47:51.389Z,101559.75
2023-04-16T13:50:19.464Z,101557.16
2023-04-16T13:52:47.917Z,101552.06
2023-04-16T13:55:19.233Z,101566.06
2023-04-16T13:57:48.297Z,101556.19
2023-04-16T14:00:17.368Z,101553.25
2023-04-16T14:02:46.169Z,101557.81
2023-04-16T14:05:15.858Z,101557.81
2023-04-16T14:07:43.613Z,101565.84
2023-04-16T14:10:12.654Z,101560.00
2023-04-16T14:12:40.756Z,101562.66
2023-04-16T14:15:10.755Z,101563.75
2023-04-16T14:17:38.805Z,101563.38
2023-04-16T14:20:08.065Z,101562.63
2023-04-16T14:22:37.552Z,101550.00
2023-04-16T14:25:06.100Z,101558.09
2023-04-16T14:27:35.261Z,101554.59
2023-04-16T14:30:03.478Z,101557.31
2023-04-16T14:32:32.498Z,101546.72
2023-04-16T14:35:00.723Z,101551.38
2023-04-16T14:37:28.715Z,101541.41
2023-04-16T14:39:58.750Z,101546.53
2023-04-16T14:42:27.214Z,101544.78
2023-04-16T14:44:55.343Z,101543.09
2023-04-16T14:47:23.555Z,101540.53
2023-04-16T14:49:51.692Z,101538.97
2023-04-16T14:52:19.757Z,101538.41
2023-04-16T14:54:49.491Z,101544.97
2023-04-16T14:57:18.894Z,101540.53
2023-04-16T14:59:46.975Z,101539.97
2023-04-16T15:02:15.255Z,101538.91
2023-04-16T15:04:43.417Z,101541.47
2023-04-16T15:07:11.752Z,101538.31
2023-04-16T15:09:40.403Z,101544.97
2023-04-16T15:12:08.329Z,101539.72
2023-04-16T15:14:37.543Z,101543.75
2023-04-16T15:17:05.737Z,101545.03
2023-04-16T15:19:33.996Z,101541.00
2023-04-16T15:22:02.218Z,101549.56
2023-04-16T15:24:30.843Z,101545.84
2023-04-16T15:26:58.942Z,101550.97
2023-04-16T15:29:26.950Z,101554.69
2023-04-16T15:31:56.641Z,101552.22
2023-04-16T15:34:24.747Z,101554.94
2023-04-16T15:36:52.711Z,101556.72
2023-04-16T15:39:21.599Z,101550.59
2023-04-16T15:42:00.831Z,101553.03
2023-04-16T15:44:32.162Z,101554.50
2023-04-16T15:47:01.907Z,101549.63
2023-04-16T15:49:29.877Z,101545.78
2023-04-16T15:51:58.304Z,101552.53
2023-04-16T15:54:26.302Z,101549.50
2023-04-16T15:56:54.431Z,101546.84
2023-04-16T15:59:22.902Z,101555.00
2023-04-16T16:01:50.964Z,101553.22
2023-04-16T16:04:23.152Z,101549.38
2023-04-16T16:12:29.557Z,101542.69
2023-04-16T16:14:58.786Z,101548.97
2023-04-16T16:17:26.965Z,101544.09
2023-04-16T16:19:57.666Z,101547.13
2023-04-16T16:22:26.137Z,101551.47
2023-04-16T16:24:56.360Z,101546.56
2023-04-16T16:27:24.656Z,101551.06
2023-04-16T16:29:52.655Z,101549.88
2023-04-16T16:32:20.688Z,101546.19
2023-04-16T16:34:48.730Z,101541.91
2023-04-16T16:37:18.067Z,101543.28
2023-04-16T16:39:46.129Z,101540.63
2023-04-16T16:42:19.170Z,101542.28
2023-04-16T16:44:48.819Z,101538.56
2023-04-16T16:47:17.020Z,101538.91
2023-04-16T16:49:45.686Z,101548.34
2023-04-16T16:52:13.613Z,101547.34
2023-04-16T16:54:43.421Z,101551.47
2023-04-16T16:57:11.663Z,101549.78
2023-04-16T16:59:39.843Z,101546.16
2023-04-16T17:02:08.333Z,101549.38
2023-04-16T17:04:36.613Z,101549.38
2023-04-16T17:07:04.736Z,101554.13
2023-04-16T17:09:33.151Z,101554.94
2023-04-16T17:12:02.736Z,101556.19
2023-04-16T17:14:30.517Z,101554.78
2023-04-16T17:16:58.519Z,101546.63
2023-04-16T17:19:26.673Z,101552.31
2023-04-16T17:21:54.947Z,101552.53
2023-04-16T17:24:23.095Z,101549.63
2023-04-16T17:26:52.161Z,101551.25
2023-04-16T17:29:26.062Z,101547.34
2023-04-16T17:31:55.157Z,101544.31
2023-04-16T17:34:23.276Z,101548.59
2023-04-16T17:36:51.394Z,101551.00
2023-04-16T17:39:19.614Z,101545.31
2023-04-16T17:41:47.693Z,101553.31
2023-04-16T17:44:16.128Z,101552.91
2023-04-16T17:46:45.923Z,101549.06
2023-04-16T17:49:14.145Z,101552.53
2023-04-16T17:51:44.620Z,101560.09
2023-04-16T17:54:13.221Z,101553.97
2023-04-16T17:56:41.463Z,101559.28
2023-04-16T17:59:09.337Z,101557.44
2023-04-16T18:01:38.086Z,101565.41
2023-04-16T18:04:08.042Z,101566.06
2023-04-16T18:06:36.180Z,101563.53
2023-04-16T18:09:06.276Z,101566.19
2023-04-16T18:11:34.303Z,101573.69
2023-04-16T18:14:02.282Z,101578.84
2023-04-16T18:16:30.658Z,101575.38
2023-04-16T18:18:59.230Z,101575.53
2023-04-16T18:21:29.962Z,101576.19
2023-04-16T18:23:58.355Z,101573.06
2023-04-16T18:26:29.685Z,101582.69
2023-04-16T18:28:58.527Z,101582.88
2023-04-16T18:31:26.946Z,101596.72
2023-04-16T18:33:57.888Z,101584.06
2023-04-16T18:36:27.070Z,101573.03
2023-04-16T18:39:01.756Z,101583.25
2023-04-16T18:41:44.196Z,101579.97
2023-04-16T18:44:12.666Z,101588.97
2023-04-16T18:46:40.703Z,101587.28
2023-04-16T18:49:09.492Z,101594.28
2023-04-16T18:51:37.694Z,101595.09
2023-04-16T18:54:07.318Z,101599.13
2023-04-16T18:56:35.081Z,101598.56
2023-04-16T18:59:03.250Z,101603.38
2023-04-16T19:01:31.601Z,101598.69
2023-04-16T19:04:00.043Z,101596.44
2023-04-16T19:06:29.351Z,101592.75
2023-04-16T19:08:57.496Z,101591.22
2023-04-16T19:11:27.360Z,101597.09
2023-04-16T19:13:55.542Z,101598.31
2023-04-16T19:16:23.757Z,101598.50
2023-04-16T19:18:52.828Z,101606.03
2023-04-16T19:21:21.156Z,101604.34
2023-04-16T19:23:49.494Z,101608.59
2023-04-16T19:26:18.474Z,101612.72
2023-04-16T19:28:48.003Z,101611.50
2023-04-16T19:31:16.210Z,101609.41
2023-04-16T19:33:44.781Z,101612.06
2023-04-16T19:36:13.035Z,101617.56
2023-04-16T19:38:41.224Z,101618.38
2023-04-16T19:41:09.789Z,101619.19
2023-04-16T19:43:37.823Z,101621.69
2023-04-16T19:46:07.451Z,101622.94
2023-04-16T19:48:35.348Z,101616.91
2023-04-16T19:51:05.467Z,101618.09
2023-04-16T19:53:34.533Z,101631.16
2023-04-16T19:56:03.375Z,101625.84
2023-04-16T19:58:32.044Z,101627.53
2023-04-16T20:01:00.145Z,101630.91
2023-04-16T20:03:30.162Z,101633.19
2023-04-16T20:05:58.326Z,101635.47
2023-04-16T20:08:26.533Z,101634.56
2023-04-16T20:10:55.736Z,101636.59
2023-04-16T20:13:23.709Z,101627.91
2023-04-16T20:15:53.374Z,101629.00
2023-04-16T20:18:22.177Z,101632.31
2023-04-16T20:20:51.793Z,101627.25
2023-04-16T20:23:20.087Z,101624.97
2023-04-16T20:25:48.609Z,101628.44
2023-04-16T20:28:18.282Z,101631.47
2023-04-16T20:30:46.198Z,101636.88
2023-04-16T20:33:14.512Z,101628.06
2023-04-16T20:35:42.819Z,101632.47
2023-04-16T20:38:12.297Z,101630.28
2023-04-16T20:40:42.252Z,101623.69
2023-04-16T20:43:14.328Z,101620.47
2023-04-16T20:45:46.625Z,101618.66
2023-04-16T20:48:14.737Z,101610.06
2023-04-16T20:50:42.863Z,101612.72
2023-04-16T20:53:13.311Z,101613.34
2023-04-16T20:55:41.276Z,101606.38
2023-04-16T20:58:09.571Z,101607.41
2023-04-16T21:00:37.841Z,101599.25
2023-04-16T21:03:06.979Z,101609.59
2023-04-16T21:05:35.198Z,101601.84
2023-04-16T21:08:03.423Z,101605.38
2023-04-16T21:10:32.958Z,101604.19
2023-04-16T21:13:00.918Z,101609.09
2023-04-16T21:15:29.433Z,101608.69
2023-04-16T21:17:57.338Z,101611.97
2023-04-16T21:20:25.670Z,101613.53
2023-04-16T21:22:57.489Z,101608.69
2023-04-16T21:25:25.841Z,101606.44
2023-04-16T21:27:55.730Z,101601.13
2023-04-16T21:30:24.432Z,101602.81
2023-04-16T21:32:52.755Z,101599.97
2023-04-16T21:35:21.344Z,101607.66
2023-04-16T21:37:50.317Z,101597.03
2023-04-16T21:40:18.825Z,101601.69
2023-04-16T21:42:47.132Z,101598.78
2023-04-16T21:45:17.066Z,101596.97
2023-04-16T21:47:45.344Z,101585.34
2023-04-16T21:50:14.125Z,101591.84
2023-04-16T21:52:46.929Z,101586.34
2023-04-16T21:55:15.271Z,101594.13
2023-04-16T21:57:43.429Z,101591.03
2023-04-16T22:00:14.443Z,101589.66
2023-04-16T22:02:44.370Z,101590.09
2023-04-16T22:05:12.602Z,101594.56
2023-04-16T22:07:42.132Z,101584.59
2023-04-16T22:10:11.812Z,101592.34
2023-04-16T22:12:41.713Z,101589.69
2023-04-16T22:15:11.315Z,101587.81
2023-04-16T22:17:39.710Z,101591.19
2023-04-16T22:20:13.012Z,101589.09
2023-04-16T22:22:41.440Z,101585.63
2023-04-16T22:25:10.778Z,101595.97
2023-04-16T22:27:39.708Z,101598.44
2023-04-16T22:30:09.434Z,101580.22
2023-04-16T22:32:37.678Z,101595.81
2023-04-16T22:35:07.153Z,101591.56
2023-04-16T22:37:37.099Z,101591.16
2023-04-16T22:40:08.500Z,101592.56
2023-04-16T22:42:36.683Z,101602.09
2023-04-16T22:45:05.510Z,101594.19
2023-04-16T22:47:34.253Z,101601.06
2023-04-16T22:50:03.317Z,101600.69
2023-04-16T22:52:31.453Z,101594.47
2023-04-16T22:55:01.742Z,101597.03
2023-04-16T22:57:29.843Z,101585.78
2023-04-16T22:59:57.886Z,101591.75
2023-04-16T23:02:26.965Z,101590.53
2023-04-16T23:04:55.018Z,101592.38
2023-04-16T23:07:23.159Z,101593.00
2023-04-16T23:09:52.182Z,101598.78
2023-04-16T23:12:21.695Z,101595.59
2023-04-16T23:14:49.742Z,101601.50
2023-04-16T23:17:18.569Z,101597.47
2023-04-16T23:19:46.601Z,101596.03
2023-04-16T23:22:14.848Z,101594.84
2023-04-16T23:24:43.312Z,101591.75
2023-04-16T23:27:11.498Z,101595.66
2023-04-16T23:29:41.370Z,101594.28
2023-04-16T23:32:10.809Z,101591.47
2023-04-16T23:34:38.979Z,101595.09
2023-04-16T23:37:07.111Z,101588.16
2023-04-16T23:39:35.806Z,101586.31
2023-04-16T23:42:03.910Z,101588.97
2023-04-16T23:44:32.130Z,101581.31
2023-04-16T23:47:02.551Z,101596.47
2023-04-16T23:49:30.821Z,101592.19
2023-04-16T23:51:59.184Z,101593.81
2023-04-16T23:54:28.068Z,101594.00
2023-04-16T23:56:57.166Z,101596.97
2023-04-16T23:59:25.561Z,101590.47
